createdAt,value
2022-09-18T00:01:37.282Z,3.10
2022-09-18T00:06:32.050Z,2.60
2022-09-18T00:08:59.398Z,3.03
2022-09-18T00:11:27.175Z,2.80
2022-09-18T00:13:53.578Z,2.63
2022-09-18T00:16:21.176Z,2.65
2022-09-18T00:18:48.105Z,2.85
2022-09-18T00:21:16.159Z,2.70
2022-09-18T00:23:42.837Z,3.10
2022-09-18T00:26:09.940Z,2.60
2022-09-18T00:28:36.507Z,3.42
2022-09-18T00:31:06.765Z,3.25
2022-09-18T00:33:33.351Z,3.20
2022-09-18T00:36:00.451Z,3.70
2022-09-18T00:38:26.769Z,4.10
2022-09-18T00:40:53.109Z,3.80
2022-09-18T00:43:24.106Z,3.30
2022-09-18T00:46:01.785Z,2.95
2022-09-18T00:50:54.440Z,2.95
2022-09-18T00:53:20.803Z,3.00
2022-09-18T00:55:47.367Z,3.15
2022-09-18T00:58:13.794Z,3.85
2022-09-18T01:00:40.256Z,3.38
2022-09-18T01:03:06.630Z,3.47
2022-09-18T01:05:51.739Z,2.90
2022-09-18T01:08:24.197Z,2.85
2022-09-18T01:10:56.729Z,2.85
2022-09-18T01:13:38.573Z,3.05
2022-09-18T01:16:11.213Z,3.25
2022-09-18T01:18:40.332Z,3.33
2022-09-18T01:21:17.395Z,2.83
2022-09-18T01:23:55.761Z,3.38
2022-09-18T01:26:40.425Z,3.40
2022-09-18T01:29:16.125Z,3.15
2022-09-18T01:31:50.701Z,3.63
2022-09-18T01:34:17.133Z,3.72
2022-09-18T01:36:45.947Z,4.15
2022-09-18T01:39:20.478Z,4.38
2022-09-18T01:41:51.251Z,4.13
2022-09-18T01:44:20.455Z,4.32
2022-09-18T01:46:47.190Z,3.65
2022-09-18T01:49:16.551Z,2.90
2022-09-18T01:52:06.231Z,3.08
2022-09-18T01:54:35.457Z,3.10
2022-09-18T01:57:08.046Z,3.70
2022-09-18T01:59:48.001Z,4.65
2022-09-18T02:02:20.372Z,4.00
2022-09-18T02:04:48.844Z,3.60
2022-09-18T02:07:38.211Z,3.03
2022-09-18T02:10:04.877Z,3.67
2022-09-18T02:12:33.195Z,3.80
2022-09-18T02:15:01.391Z,4.10
2022-09-18T02:17:31.788Z,3.70
2022-09-18T02:20:02.970Z,3.38
2022-09-18T02:22:31.994Z,3.10
2022-09-18T02:25:01.663Z,3.72
2022-09-18T02:27:29.854Z,3.63
2022-09-18T02:29:56.773Z,4.63
2022-09-18T02:32:23.099Z,4.10
2022-09-18T02:34:49.533Z,4.07
2022-09-18T02:37:15.938Z,3.47
2022-09-18T02:40:01.287Z,3.10
2022-09-18T02:42:39.573Z,3.42
2022-09-18T02:45:12.822Z,3.30
2022-09-18T02:47:59.429Z,3.58
2022-09-18T02:50:29.998Z,3.53
2022-09-18T02:53:05.893Z,3.35
2022-09-18T02:55:52.411Z,3.33
2022-09-18T02:58:26.186Z,4.00
2022-09-18T03:00:55.215Z,3.63
2022-09-18T03:03:26.316Z,3.78
2022-09-18T03:05:52.650Z,4.10
2022-09-18T03:08:19.346Z,3.60
2022-09-18T03:10:45.697Z,3.65
2022-09-18T03:13:12.037Z,3.97
2022-09-18T03:15:38.375Z,4.03
2022-09-18T03:18:04.776Z,3.95
2022-09-18T03:20:31.178Z,3.97
2022-09-18T03:22:57.499Z,4.30
2022-09-18T03:25:23.851Z,4.50
2022-09-18T03:27:53.659Z,4.30
2022-09-18T03:30:19.987Z,3.58
2022-09-18T03:32:46.398Z,3.97
2022-09-18T03:35:12.770Z,3.60
2022-09-18T03:37:39.132Z,3.90
2022-09-18T03:40:05.808Z,3.47
2022-09-18T03:42:32.219Z,3.42
2022-09-18T03:44:58.599Z,3.08
2022-09-18T03:47:25.726Z,3.22
2022-09-18T03:49:52.101Z,3.67
2022-09-18T03:52:18.429Z,3.72
2022-09-18T03:54:44.961Z,4.70
2022-09-18T03:57:11.286Z,3.22
2022-09-18T03:59:37.626Z,3.35
2022-09-18T04:02:04.044Z,3.65
2022-09-18T04:04:30.385Z,4.30
2022-09-18T04:06:56.721Z,3.67
2022-09-18T04:09:23.047Z,4.20
2022-09-18T04:11:49.899Z,3.63
2022-09-18T04:14:16.300Z,3.45
2022-09-18T04:16:42.610Z,3.83
2022-09-18T04:19:09.223Z,3.70
2022-09-18T04:21:35.579Z,4.20
2022-09-18T04:24:02.189Z,4.30
2022-09-18T04:26:28.618Z,4.00
2022-09-18T04:28:54.989Z,4.18
2022-09-18T04:31:21.841Z,3.70
2022-09-18T04:33:48.555Z,4.60
2022-09-18T04:36:15.242Z,4.38
2022-09-18T04:38:51.092Z,4.28
2022-09-18T04:41:17.439Z,5.38
2022-09-18T04:43:43.792Z,4.47
2022-09-18T04:46:10.193Z,4.28
2022-09-18T04:48:36.608Z,3.00
2022-09-18T04:51:02.948Z,4.45
2022-09-18T04:53:29.305Z,4.40
2022-09-18T04:55:55.666Z,4.07
2022-09-18T04:58:22.058Z,4.20
2022-09-18T05:00:50.026Z,4.32
2022-09-18T05:03:17.996Z,3.70
2022-09-18T05:05:44.352Z,3.58
2022-09-18T05:08:10.679Z,3.80
2022-09-18T05:10:36.991Z,3.55
2022-09-18T05:13:03.366Z,4.00
2022-09-18T05:15:29.741Z,4.05
2022-09-18T05:17:59.847Z,4.30
2022-09-18T05:20:26.329Z,3.97
2022-09-18T05:22:52.710Z,3.95
2022-09-18T05:25:20.603Z,4.05
2022-09-18T05:27:53.312Z,3.67
2022-09-18T05:30:20.156Z,3.40
2022-09-18T05:32:59.319Z,3.70
2022-09-18T05:35:27.132Z,4.10
2022-09-18T05:37:54.216Z,3.63
2022-09-18T05:40:23.679Z,3.93
2022-09-18T05:42:50.519Z,4.07
2022-09-18T05:45:17.073Z,4.10
2022-09-18T05:47:43.412Z,4.05
2022-09-18T05:50:10.001Z,3.70
2022-09-18T05:52:36.305Z,4.15
2022-09-18T05:55:02.766Z,3.92
2022-09-18T05:57:29.120Z,4.35
2022-09-18T05:59:55.450Z,4.25
2022-09-18T06:02:21.829Z,3.75
2022-09-18T06:04:48.236Z,3.70
2022-09-18T06:07:16.178Z,4.10
2022-09-18T06:12:08.910Z,3.70
2022-09-18T06:14:35.248Z,4.00
2022-09-18T06:17:01.647Z,4.00
2022-09-18T06:19:27.999Z,4.28
2022-09-18T06:21:54.310Z,4.18
2022-09-18T06:24:20.625Z,3.75
2022-09-18T06:26:48.475Z,4.05
2022-09-18T06:29:14.813Z,3.70
2022-09-18T06:31:41.213Z,3.63
2022-09-18T06:34:07.566Z,3.50
2022-09-18T06:36:33.933Z,4.00
2022-09-18T06:39:00.397Z,4.00
2022-09-18T06:41:26.873Z,3.90
2022-09-18T06:43:53.205Z,4.28
2022-09-18T06:46:19.629Z,4.10
2022-09-18T06:48:48.084Z,3.90
2022-09-18T06:51:14.470Z,3.70
2022-09-18T06:53:40.804Z,3.33
2022-09-18T06:56:07.274Z,3.90
2022-09-18T06:58:33.640Z,3.80
2022-09-18T07:01:00.980Z,4.78
2022-09-18T07:03:27.425Z,4.72
2022-09-18T07:05:53.812Z,3.97
2022-09-18T07:08:20.254Z,4.70
2022-09-18T07:10:46.631Z,4.47
2022-09-18T07:13:13.001Z,4.55
2022-09-18T07:15:39.518Z,4.80
2022-09-18T07:18:06.797Z,4.55
2022-09-18T07:20:33.258Z,4.03
2022-09-18T07:23:00.602Z,4.30
2022-09-18T07:25:27.948Z,5.00
2022-09-18T07:27:54.299Z,4.68
2022-09-18T07:30:21.156Z,4.80
2022-09-18T07:32:47.689Z,4.28
2022-09-18T07:35:14.045Z,4.13
2022-09-18T07:37:40.392Z,3.60
2022-09-18T07:40:08.164Z,3.50
2022-09-18T07:45:00.838Z,2.33
2022-09-18T07:47:28.006Z,2.90
2022-09-18T07:49:54.827Z,2.28
2022-09-18T07:52:21.407Z,2.72
2022-09-18T07:54:47.770Z,3.22
2022-09-18T07:57:14.137Z,2.47
2022-09-18T07:59:40.513Z,2.45
2022-09-18T08:02:07.020Z,2.80
2022-09-18T08:04:33.452Z,2.60
2022-09-18T08:07:03.853Z,2.13
2022-09-18T08:09:30.337Z,2.10
2022-09-18T08:11:56.802Z,1.20
2022-09-18T08:14:28.004Z,0.85
2022-09-18T08:16:55.490Z,0.70
2022-09-18T08:19:21.867Z,0.70
2022-09-18T08:21:48.229Z,0.50
2022-09-18T08:24:17.294Z,0.60
2022-09-18T08:26:43.946Z,0.60
2022-09-18T08:29:10.322Z,0.60
2022-09-18T08:31:36.835Z,0.50
2022-09-18T08:34:03.405Z,0.75
2022-09-18T08:36:29.781Z,0.50
2022-09-18T08:38:56.123Z,0.40
2022-09-18T08:41:25.251Z,0.57
2022-09-18T08:43:55.127Z,0.40
2022-09-18T08:46:27.948Z,0.35
2022-09-18T08:48:57.454Z,0.50
2022-09-18T08:51:31.875Z,0.50
2022-09-18T08:54:04.839Z,0.60
2022-09-18T08:56:31.825Z,0.70
2022-09-18T08:59:00.711Z,0.90
2022-09-18T09:01:33.678Z,1.27
2022-09-18T09:04:10.869Z,1.20
2022-09-18T09:06:56.243Z,1.50
2022-09-18T09:09:37.946Z,0.80
2022-09-18T09:12:19.873Z,0.43
2022-09-18T09:15:03.981Z,0.40
2022-09-18T09:17:39.797Z,0.50
2022-09-18T09:20:06.331Z,0.68
2022-09-18T09:22:51.275Z,0.73
2022-09-18T09:25:22.715Z,0.77
2022-09-18T09:27:53.677Z,0.55
2022-09-18T09:30:20.503Z,0.75
2022-09-18T09:32:49.704Z,0.75
2022-09-18T09:35:26.279Z,0.50
2022-09-18T09:37:53.445Z,0.70
2022-09-18T09:40:38.552Z,0.70
2022-09-18T09:43:13.977Z,0.90
2022-09-18T09:45:48.464Z,0.85
2022-09-18T09:48:17.811Z,0.80
2022-09-18T09:50:53.420Z,2.10
2022-09-18T09:53:19.923Z,1.20
2022-09-18T09:55:47.271Z,0.80
2022-09-18T09:58:34.141Z,1.52
2022-09-18T10:01:11.447Z,1.40
2022-09-18T10:03:51.838Z,0.55
2022-09-18T10:06:31.738Z,1.67
2022-09-18T10:09:20.890Z,2.00
2022-09-18T10:11:55.242Z,1.00
2022-09-18T10:14:25.597Z,0.88
2022-09-18T10:16:52.389Z,0.90
2022-09-18T10:19:20.393Z,1.10
2022-09-18T10:21:47.265Z,0.88
2022-09-18T10:24:19.882Z,0.70
2022-09-18T10:26:49.913Z,0.60
2022-09-18T10:29:17.229Z,0.80
2022-09-18T10:31:51.519Z,0.90
2022-09-18T10:34:36.625Z,1.08
2022-09-18T10:37:03.346Z,0.60
2022-09-18T10:39:31.694Z,1.00
2022-09-18T10:42:02.458Z,0.60
2022-09-18T10:44:35.755Z,0.50
2022-09-18T10:47:05.242Z,0.47
2022-09-18T10:49:33.077Z,0.80
2022-09-18T10:52:29.881Z,0.57
2022-09-18T10:54:59.070Z,0.40
2022-09-18T10:57:33.317Z,0.60
2022-09-18T11:00:00.315Z,0.35
2022-09-18T11:02:34.042Z,0.60
2022-09-18T11:05:02.120Z,0.60
2022-09-18T11:07:28.561Z,0.65
2022-09-18T11:09:54.992Z,0.38
2022-09-18T11:12:22.985Z,0.50
2022-09-18T11:14:55.694Z,0.38
2022-09-18T11:17:24.490Z,0.70
2022-09-18T11:19:52.343Z,0.73
2022-09-18T11:22:31.325Z,0.50
2022-09-18T11:25:12.974Z,0.60
2022-09-18T11:27:46.822Z,0.60
2022-09-18T11:30:14.577Z,0.70
2022-09-18T11:32:41.145Z,0.50
2022-09-18T11:35:13.894Z,0.68
2022-09-18T11:37:43.962Z,1.48
2022-09-18T11:40:30.229Z,0.70
2022-09-18T11:42:56.984Z,0.45
2022-09-18T11:45:52.735Z,1.00
2022-09-18T11:48:36.323Z,0.60
2022-09-18T11:51:05.269Z,0.60
2022-09-18T11:53:43.138Z,0.70
2022-09-18T11:56:36.003Z,0.40
2022-09-18T11:59:06.041Z,0.52
2022-09-18T12:01:43.668Z,0.75
2022-09-18T12:04:13.056Z,1.00
2022-09-18T12:06:42.502Z,0.60
2022-09-18T12:09:13.804Z,0.90
2022-09-18T12:12:09.360Z,0.60
2022-09-18T12:14:45.753Z,0.60
2022-09-18T12:17:22.675Z,0.80
2022-09-18T12:22:18.140Z,0.80
2022-09-18T12:24:44.555Z,0.60
2022-09-18T12:27:10.860Z,0.60
2022-09-18T12:29:37.162Z,0.70
2022-09-18T12:32:03.473Z,1.08
2022-09-18T12:34:29.802Z,1.02
2022-09-18T12:37:10.739Z,1.58
2022-09-18T12:40:02.447Z,0.95
2022-09-18T12:42:55.021Z,0.88
2022-09-18T12:45:27.551Z,1.08
2022-09-18T12:48:12.779Z,1.15
2022-09-18T12:50:42.613Z,1.10
2022-09-18T12:53:18.373Z,1.10
2022-09-18T12:56:11.352Z,0.70
2022-09-18T12:58:37.901Z,1.40
2022-09-18T13:01:08.823Z,1.38
2022-09-18T13:03:36.883Z,1.50
2022-09-18T13:06:08.729Z,0.75
2022-09-18T13:08:54.582Z,0.90
2022-09-18T13:11:39.426Z,1.35
2022-09-18T13:14:10.029Z,1.20
2022-09-18T13:16:50.199Z,2.40
2022-09-18T13:19:16.925Z,1.40
2022-09-18T13:21:44.868Z,0.70
2022-09-18T13:24:13.831Z,1.38
2022-09-18T13:26:40.829Z,1.30
2022-09-18T13:29:25.946Z,1.70
2022-09-18T13:31:53.271Z,0.73
2022-09-18T13:34:20.938Z,2.42
2022-09-18T13:36:47.293Z,0.90
2022-09-18T13:39:28.672Z,0.73
2022-09-18T13:41:56.705Z,0.88
2022-09-18T13:44:25.030Z,0.95
2022-09-18T13:46:53.209Z,0.90
2022-09-18T13:49:19.669Z,0.85
2022-09-18T13:51:46.058Z,0.70
2022-09-18T13:54:12.371Z,0.93
2022-09-18T13:56:57.585Z,0.80
2022-09-18T13:59:43.093Z,0.93
2022-09-18T14:02:24.865Z,0.97
2022-09-18T14:05:00.322Z,0.57
2022-09-18T14:07:26.633Z,0.70
2022-09-18T14:09:54.466Z,0.90
2022-09-18T14:12:21.410Z,0.98
2022-09-18T14:17:15.289Z,0.57
2022-09-18T14:19:44.241Z,0.50
2022-09-18T14:22:23.366Z,0.50
2022-09-18T14:24:49.694Z,0.68
2022-09-18T14:27:35.459Z,0.80
2022-09-18T14:30:14.224Z,0.40
2022-09-18T14:32:41.883Z,0.90
2022-09-18T14:35:26.931Z,0.68
2022-09-18T14:37:53.367Z,0.98
2022-09-18T14:40:24.033Z,0.77
2022-09-18T14:42:50.862Z,0.52
2022-09-18T14:45:17.201Z,0.40
2022-09-18T14:47:44.789Z,0.43
2022-09-18T14:50:23.106Z,0.57
2022-09-18T14:52:49.568Z,0.57
2022-09-18T14:55:20.457Z,0.52
2022-09-18T14:57:50.066Z,0.60
2022-09-18T15:00:20.553Z,0.57
2022-09-18T15:02:51.021Z,0.60
2022-09-18T15:05:18.795Z,1.00
2022-09-18T15:07:53.483Z,0.68
2022-09-18T15:10:19.895Z,0.65
2022-09-18T15:12:46.411Z,0.75
2022-09-18T15:15:40.046Z,0.60
2022-09-18T15:18:27.491Z,0.80
2022-09-18T15:20:54.982Z,0.70
2022-09-18T15:23:32.323Z,0.70
2022-09-18T15:26:01.409Z,0.60
2022-09-18T15:28:29.305Z,0.68
2022-09-18T15:30:58.330Z,0.52
2022-09-18T15:33:27.387Z,0.60
2022-09-18T15:35:55.182Z,0.60
2022-09-18T15:38:22.778Z,0.70
2022-09-18T15:40:49.655Z,0.68
2022-09-18T15:43:31.201Z,1.15
2022-09-18T15:46:04.689Z,1.27
2022-09-18T15:48:37.096Z,1.10
2022-09-18T15:51:26.591Z,1.35
2022-09-18T15:54:01.983Z,1.30
2022-09-18T15:56:28.729Z,0.77
2022-09-18T15:58:57.936Z,0.70
2022-09-18T16:01:50.702Z,0.60
2022-09-18T16:04:20.122Z,0.50
2022-09-18T16:06:50.925Z,0.60
2022-09-18T16:09:25.061Z,0.60
2022-09-18T16:11:51.885Z,0.70
2022-09-18T16:14:44.667Z,0.63
2022-09-18T16:17:29.007Z,0.73
2022-09-18T16:19:56.898Z,0.60
2022-09-18T16:22:23.609Z,0.90
2022-09-18T16:24:50.117Z,0.45
2022-09-18T16:27:18.079Z,0.50
2022-09-18T16:29:44.415Z,0.60
2022-09-18T16:32:11.533Z,0.60
2022-09-18T16:34:37.876Z,0.45
2022-09-18T16:37:08.084Z,0.63
2022-09-18T16:39:37.931Z,0.80
2022-09-18T16:42:23.810Z,0.55
2022-09-18T16:44:52.073Z,0.73
2022-09-18T16:47:18.665Z,0.90
2022-09-18T16:49:46.617Z,0.60
2022-09-18T16:52:13.822Z,0.68
2022-09-18T16:54:40.157Z,0.55
2022-09-18T16:57:11.470Z,0.85
2022-09-18T16:59:38.726Z,0.60
2022-09-18T17:02:05.287Z,0.60
2022-09-18T17:04:31.958Z,0.60
2022-09-18T17:06:58.301Z,0.77
2022-09-18T17:09:24.900Z,0.50
2022-09-18T17:11:52.001Z,0.52
2022-09-18T17:14:18.995Z,0.50
2022-09-18T17:16:45.415Z,0.35
2022-09-18T17:19:12.054Z,0.77
2022-09-18T17:21:38.916Z,0.67
2022-09-18T17:24:06.598Z,0.50
2022-09-18T17:26:34.499Z,0.77
2022-09-18T17:29:00.861Z,1.00
2022-09-18T17:31:27.274Z,0.73
2022-09-18T17:33:53.921Z,0.80
2022-09-18T17:36:20.611Z,0.90
2022-09-18T17:38:47.364Z,0.70
2022-09-18T17:41:15.185Z,1.00
2022-09-18T17:43:41.598Z,0.80
2022-09-18T17:46:09.482Z,0.77
2022-09-18T17:48:35.883Z,0.80
2022-09-18T17:51:04.126Z,0.93
2022-09-18T17:53:31.663Z,1.17
2022-09-18T17:55:59.136Z,1.20
2022-09-18T18:00:51.800Z,0.83
2022-09-18T18:03:18.306Z,1.10
2022-09-18T18:05:51.423Z,1.10
2022-09-18T18:08:18.653Z,2.38
2022-09-18T18:10:45.175Z,3.50
2022-09-18T18:13:13.571Z,4.35
2022-09-18T18:15:40.062Z,1.95
2022-09-18T18:18:07.458Z,1.50
2022-09-18T18:20:33.869Z,1.70
2022-09-18T18:23:00.196Z,1.73
2022-09-18T18:25:27.205Z,1.77
2022-09-18T18:27:55.231Z,1.98
2022-09-18T18:30:24.029Z,2.25
2022-09-18T18:32:51.989Z,1.80
2022-09-18T18:35:19.528Z,2.00
2022-09-18T18:40:13.143Z,1.50
2022-09-18T18:42:39.546Z,2.78
2022-09-18T18:45:06.171Z,6.10
2022-09-18T18:47:32.614Z,6.27
2022-09-18T18:49:59.154Z,2.75
2022-09-18T18:52:26.326Z,3.20
2022-09-18T18:54:52.685Z,2.67
2022-09-18T18:57:19.085Z,2.83
2022-09-18T18:59:45.461Z,2.33
2022-09-18T19:02:11.872Z,2.50
2022-09-18T19:04:40.224Z,2.35
2022-09-18T19:07:06.544Z,2.40
2022-09-18T19:09:33.674Z,2.75
2022-09-18T19:12:02.086Z,2.88
2022-09-18T19:14:31.467Z,4.20
2022-09-18T19:16:58.021Z,4.72
2022-09-18T19:19:25.448Z,4.40
2022-09-18T19:21:52.224Z,4.63
2022-09-18T19:24:18.657Z,3.20
2022-09-18T19:26:45.614Z,2.50
2022-09-18T19:29:13.117Z,2.70
2022-09-18T19:34:05.942Z,2.88
2022-09-18T19:36:32.594Z,1.88
2022-09-18T19:39:00.611Z,2.17
2022-09-18T19:41:47.840Z,2.22
2022-09-18T19:46:40.823Z,1.90
2022-09-18T19:49:13.348Z,2.00
2022-09-18T19:51:39.734Z,1.98
2022-09-18T19:54:06.041Z,1.60
2022-09-18T19:56:42.837Z,1.48
2022-09-18T20:01:36.813Z,1.20
2022-09-18T20:04:03.379Z,1.02
2022-09-18T20:06:30.834Z,0.93
2022-09-18T20:08:57.170Z,0.70
2022-09-18T20:11:23.566Z,0.98
2022-09-18T20:13:50.700Z,0.80
2022-09-18T20:16:17.710Z,0.77
2022-09-18T20:18:44.819Z,1.10
2022-09-18T20:21:12.465Z,1.20
2022-09-18T20:26:08.682Z,1.30
2022-09-18T20:28:36.236Z,1.35
2022-09-18T20:33:29.566Z,0.90
2022-09-18T20:35:59.066Z,1.23
2022-09-18T20:38:35.317Z,1.60
2022-09-18T20:41:06.553Z,1.50
2022-09-18T20:43:34.059Z,1.10
2022-09-18T20:46:01.184Z,1.10
2022-09-18T20:48:41.272Z,1.20
2022-09-18T20:51:09.212Z,0.90
2022-09-18T20:53:38.284Z,0.90
2022-09-18T20:56:08.613Z,0.82
2022-09-18T20:58:35.461Z,1.00
2022-09-18T21:01:09.286Z,0.98
2022-09-18T21:03:35.769Z,0.85
2022-09-18T21:06:21.366Z,0.90
2022-09-18T21:08:48.768Z,1.27
2022-09-18T21:11:16.454Z,1.08
2022-09-18T21:16:11.037Z,1.10
2022-09-18T21:18:40.757Z,1.45
2022-09-18T21:21:08.733Z,1.73
2022-09-18T21:23:53.921Z,2.05
2022-09-18T21:26:20.909Z,2.13
2022-09-18T21:28:54.176Z,2.17
2022-09-18T21:31:21.378Z,3.13
2022-09-18T21:33:48.237Z,6.88
2022-09-18T21:36:14.607Z,13.37
2022-09-18T21:38:41.288Z,8.70
2022-09-18T21:41:09.527Z,7.82
2022-09-18T21:43:38.152Z,10.73
2022-09-18T21:46:09.514Z,11.38
2022-09-18T21:48:35.921Z,10.23
2022-09-18T21:51:05.884Z,10.80
2022-09-18T21:53:32.621Z,6.13
2022-09-18T21:56:02.795Z,7.13
2022-09-18T21:58:29.215Z,7.65
2022-09-18T22:00:55.609Z,7.47
2022-09-18T22:03:21.966Z,5.13
2022-09-18T22:05:48.385Z,4.82
2022-09-18T22:08:16.391Z,3.20
2022-09-18T22:10:43.705Z,3.45
2022-09-18T22:13:10.057Z,3.40
2022-09-18T22:15:36.431Z,3.10
2022-09-18T22:18:02.806Z,3.65
2022-09-18T22:20:29.245Z,2.90
2022-09-18T22:22:55.617Z,2.33
2022-09-18T22:25:21.950Z,2.90
2022-09-18T22:27:48.303Z,2.70
2022-09-18T22:30:15.137Z,2.45
2022-09-18T22:32:41.444Z,2.70
2022-09-18T22:35:08.370Z,2.58
2022-09-18T22:37:34.741Z,2.47
2022-09-18T22:40:01.242Z,2.60
2022-09-18T22:42:27.604Z,2.30
2022-09-18T22:44:54.027Z,2.15
2022-09-18T22:47:20.395Z,2.30
2022-09-18T22:49:46.748Z,2.47
2022-09-18T22:52:13.079Z,2.08
2022-09-18T22:54:39.495Z,2.38
2022-09-18T22:57:05.807Z,2.40
2022-09-18T22:59:32.158Z,2.40
2022-09-18T23:02:03.637Z,2.30
2022-09-18T23:04:31.036Z,2.30
2022-09-18T23:06:59.123Z,2.33
2022-09-18T23:09:26.012Z,2.20
2022-09-18T23:11:53.189Z,2.30
2022-09-18T23:14:21.390Z,2.40
2022-09-18T23:16:49.049Z,2.22
2022-09-18T23:19:17.586Z,2.03
2022-09-18T23:21:44.002Z,2.20
2022-09-18T23:24:10.689Z,2.10
2022-09-18T23:26:38.554Z,2.35
2022-09-18T23:31:32.162Z,2.38
2022-09-18T23:33:59.846Z,2.60
2022-09-18T23:36:30.254Z,2.28
2022-09-18T23:39:01.692Z,2.67
2022-09-18T23:41:34.348Z,2.40
2022-09-18T23:44:01.619Z,2.05
2022-09-18T23:46:28.277Z,2.70
2022-09-18T23:48:57.283Z,2.50
2022-09-18T23:51:28.298Z,2.83
2022-09-18T23:53:55.549Z,2.80
2022-09-18T23:56:23.543Z,2.58
2022-09-18T23:58:54.378Z,2.40
